sensor_id;sensor_type;location;lat;lon;timestamp;pressure;altitude;pressure_sealevel;temperature;humidity
10992;BME280;5549;47.028;15.514;2024-01-27T00:00:16;97354.03;;;9.56;34.16
10992;BME280;5549;47.028;15.514;2024-01-27T00:02:51;97381.22;;;9.28;34.77
10992;BME280;5549;47.028;15.514;2024-01-27T00:05:20;97373.03;;;9.20;34.33
10992;BME280;5549;47.028;15.514;2024-01-27T00:07:49;97357.75;;;9.27;34.22
10992;BME280;5549;47.028;15.514;2024-01-27T00:10:19;97361.75;;;9.32;34.02
10992;BME280;5549;47.028;15.514;2024-01-27T00:12:47;97366.25;;;9.30;34.21
10992;BME280;5549;47.028;15.514;2024-01-27T00:15:15;97371.16;;;9.22;34.48
10992;BME280;5549;47.028;15.514;2024-01-27T00:17:46;97372.50;;;9.15;34.51
10992;BME280;5549;47.028;15.514;2024-01-27T00:20:14;97370.72;;;9.16;34.81
10992;BME280;5549;47.028;15.514;2024-01-27T00:22:44;97363.69;;;9.16;34.66
10992;BME280;5549;47.028;15.514;2024-01-27T00:25:13;97366.84;;;9.21;34.96
10992;BME280;5549;47.028;15.514;2024-01-27T00:27:45;97374.38;;;9.13;35.13
10992;BME280;5549;47.028;15.514;2024-01-27T00:30:13;97371.16;;;9.22;34.94
10992;BME280;5549;47.028;15.514;2024-01-27T00:32:43;97380.06;;;8.93;35.17
10992;BME280;5549;47.028;15.514;2024-01-27T00:35:13;97381.16;;;9.03;35.07
10992;BME280;5549;47.028;15.514;2024-01-27T00:37:43;97378.28;;;8.93;35.10
10992;BME280;5549;47.028;15.514;2024-01-27T00:40:13;97375.72;;;9.06;34.81
10992;BME280;5549;47.028;15.514;2024-01-27T00:42:41;97384.13;;;9.11;34.92
10992;BME280;5549;47.028;15.514;2024-01-27T00:45:12;97388.81;;;9.06;34.56
10992;BME280;5549;47.028;15.514;2024-01-27T00:47:45;97374.00;;;8.92;35.17
10992;BME280;5549;47.028;15.514;2024-01-27T00:50:15;97378.94;;;8.97;34.77
10992;BME280;5549;47.028;15.514;2024-01-27T00:52:43;97382.53;;;8.82;35.24
10992;BME280;5549;47.028;15.514;2024-01-27T00:55:14;97384.38;;;8.94;35.04
10992;BME280;5549;47.028;15.514;2024-01-27T00:57:43;97388.66;;;8.95;34.79
10992;BME280;5549;47.028;15.514;2024-01-27T01:00:13;97395.25;;;8.88;35.21
10992;BME280;5549;47.028;15.514;2024-01-27T01:02:45;97380.81;;;8.95;35.07
10992;BME280;5549;47.028;15.514;2024-01-27T01:05:16;97380.91;;;8.93;34.80
10992;BME280;5549;47.028;15.514;2024-01-27T01:07:44;97391.72;;;8.60;35.32
10992;BME280;5549;47.028;15.514;2024-01-27T01:10:13;97399.44;;;8.90;34.86
10992;BME280;5549;47.028;15.514;2024-01-27T01:12:41;97396.72;;;8.92;34.86
10992;BME280;5549;47.028;15.514;2024-01-27T01:15:11;97392.25;;;8.80;34.83
10992;BME280;5549;47.028;15.514;2024-01-27T01:17:46;97385.53;;;8.76;35.13
10992;BME280;5549;47.028;15.514;2024-01-27T01:20:17;97392.91;;;8.83;35.15
10992;BME280;5549;47.028;15.514;2024-01-27T01:22:47;97382.34;;;8.85;35.01
10992;BME280;5549;47.028;15.514;2024-01-27T01:25:19;97396.22;;;8.73;34.74
10992;BME280;5549;47.028;15.514;2024-01-27T01:27:47;97392.94;;;8.69;35.26
10992;BME280;5549;47.028;15.514;2024-01-27T01:30:18;97400.81;;;8.69;35.19
10992;BME280;5549;47.028;15.514;2024-01-27T01:32:46;97395.28;;;8.59;34.48
10992;BME280;5549;47.028;15.514;2024-01-27T01:35:14;97405.75;;;8.74;34.47
10992;BME280;5549;47.028;15.514;2024-01-27T01:37:41;97407.53;;;8.73;34.38
10992;BME280;5549;47.028;15.514;2024-01-27T01:40:11;97402.19;;;8.60;34.08
10992;BME280;5549;47.028;15.514;2024-01-27T01:42:41;97395.47;;;8.56;34.45
10992;BME280;5549;47.028;15.514;2024-01-27T01:45:11;97384.25;;;8.68;34.02
10992;BME280;5549;47.028;15.514;2024-01-27T01:47:41;97365.91;;;8.68;33.80
10992;BME280;5549;47.028;15.514;2024-01-27T01:50:09;97390.22;;;8.71;33.33
10992;BME280;5549;47.028;15.514;2024-01-27T01:52:38;97386.31;;;8.49;34.26
10992;BME280;5549;47.028;15.514;2024-01-27T01:55:08;97392.28;;;8.51;33.90
10992;BME280;5549;47.028;15.514;2024-01-27T01:57:36;97389.38;;;8.56;33.81
10992;BME280;5549;47.028;15.514;2024-01-27T02:00:11;97408.91;;;8.64;34.06
10992;BME280;5549;47.028;15.514;2024-01-27T02:02:43;97409.00;;;8.77;33.51
10992;BME280;5549;47.028;15.514;2024-01-27T02:05:14;97411.44;;;8.66;33.53
10992;BME280;5549;47.028;15.514;2024-01-27T02:07:45;97414.47;;;8.46;33.82
10992;BME280;5549;47.028;15.514;2024-01-27T02:10:17;97409.97;;;8.33;33.63
10992;BME280;5549;47.028;15.514;2024-01-27T02:12:47;97416.69;;;8.52;33.76
10992;BME280;5549;47.028;15.514;2024-01-27T02:15:16;97424.53;;;8.66;33.11
10992;BME280;5549;47.028;15.514;2024-01-27T02:17:44;97411.16;;;8.56;32.97
10992;BME280;5549;47.028;15.514;2024-01-27T02:20:13;97415.09;;;8.49;32.80
10992;BME280;5549;47.028;15.514;2024-01-27T02:22:43;97420.16;;;8.52;33.48
10992;BME280;5549;47.028;15.514;2024-01-27T02:25:12;97424.81;;;8.61;33.13
10992;BME280;5549;47.028;15.514;2024-01-27T02:27:42;97429.03;;;8.64;32.74
10992;BME280;5549;47.028;15.514;2024-01-27T02:30:13;97425.75;;;8.75;32.53
10992;BME280;5549;47.028;15.514;2024-01-27T02:32:41;97434.56;;;8.45;32.79
10992;BME280;5549;47.028;15.514;2024-01-27T02:35:08;97425.78;;;8.46;32.48
10992;BME280;5549;47.028;15.514;2024-01-27T02:37:38;97432.13;;;8.71;32.58
10992;BME280;5549;47.028;15.514;2024-01-27T02:40:09;97423.06;;;8.48;32.61
10992;BME280;5549;47.028;15.514;2024-01-27T02:42:40;97422.75;;;8.66;32.15
10992;BME280;5549;47.028;15.514;2024-01-27T02:45:10;97436.69;;;8.53;32.47
10992;BME280;5549;47.028;15.514;2024-01-27T02:47:40;97432.97;;;8.57;32.18
10992;BME280;5549;47.028;15.514;2024-01-27T02:50:09;97427.34;;;8.63;32.02
10992;BME280;5549;47.028;15.514;2024-01-27T02:52:40;97429.78;;;8.52;32.02
10992;BME280;5549;47.028;15.514;2024-01-27T02:55:10;97431.47;;;8.53;32.16
10992;BME280;5549;47.028;15.514;2024-01-27T02:57:42;97427.63;;;8.58;32.15
10992;BME280;5549;47.028;15.514;2024-01-27T03:00:12;97427.63;;;8.44;32.14
10992;BME280;5549;47.028;15.514;2024-01-27T03:02:41;97432.88;;;8.44;32.32
10992;BME280;5549;47.028;15.514;2024-01-27T03:05:11;97435.56;;;8.57;32.02
10992;BME280;5549;47.028;15.514;2024-01-27T03:07:42;97436.97;;;8.48;31.98
10992;BME280;5549;47.028;15.514;2024-01-27T03:10:09;97436.22;;;8.60;32.10
10992;BME280;5549;47.028;15.514;2024-01-27T03:12:39;97444.28;;;8.57;32.00
10992;BME280;5549;47.028;15.514;2024-01-27T03:15:11;97450.25;;;8.74;31.92
10992;BME280;5549;47.028;15.514;2024-01-27T03:17:48;97456.53;;;8.71;31.75
10992;BME280;5549;47.028;15.514;2024-01-27T03:20:16;97466.16;;;8.85;31.98
10992;BME280;5549;47.028;15.514;2024-01-27T03:22:46;97471.09;;;8.47;32.16
10992;BME280;5549;47.028;15.514;2024-01-27T03:25:15;97472.69;;;8.49;32.11
10992;BME280;5549;47.028;15.514;2024-01-27T03:27:50;97479.81;;;8.47;32.27
10992;BME280;5549;47.028;15.514;2024-01-27T03:30:21;97482.22;;;8.36;32.21
10992;BME280;5549;47.028;15.514;2024-01-27T03:32:51;97477.38;;;8.44;32.73
10992;BME280;5549;47.028;15.514;2024-01-27T03:35:21;97479.44;;;8.53;32.64
10992;BME280;5549;47.028;15.514;2024-01-27T03:37:49;97486.31;;;8.26;32.70
10992;BME280;5549;47.028;15.514;2024-01-27T03:40:20;97492.22;;;8.44;32.52
10992;BME280;5549;47.028;15.514;2024-01-27T03:42:49;97492.09;;;8.31;32.63
10992;BME280;5549;47.028;15.514;2024-01-27T03:45:17;97493.22;;;8.27;32.66
10992;BME280;5549;47.028;15.514;2024-01-27T03:47:48;97492.56;;;8.23;33.28
10992;BME280;5549;47.028;15.514;2024-01-27T03:50:18;97497.69;;;8.25;32.96
10992;BME280;5549;47.028;15.514;2024-01-27T03:52:48;97496.03;;;8.24;33.59
10992;BME280;5549;47.028;15.514;2024-01-27T03:55:18;97493.53;;;8.36;33.25
10992;BME280;5549;47.028;15.514;2024-01-27T03:57:46;97486.63;;;8.35;32.89
10992;BME280;5549;47.028;15.514;2024-01-27T04:00:16;97492.69;;;8.50;33.13
10992;BME280;5549;47.028;15.514;2024-01-27T04:02:45;97484.84;;;8.36;33.19
10992;BME280;5549;47.028;15.514;2024-01-27T04:05:14;97495.50;;;8.47;32.94
10992;BME280;5549;47.028;15.514;2024-01-27T04:07:45;97504.66;;;8.40;33.25
10992;BME280;5549;47.028;15.514;2024-01-27T04:10:12;97496.06;;;8.38;33.22
10992;BME280;5549;47.028;15.514;2024-01-27T04:12:43;97496.41;;;8.32;33.00
10992;BME280;5549;47.028;15.514;2024-01-27T04:15:13;97503.34;;;8.33;33.73
10992;BME280;5549;47.028;15.514;2024-01-27T04:17:43;97493.06;;;8.44;33.34
10992;BME280;5549;47.028;15.514;2024-01-27T04:20:15;97502.97;;;8.39;33.70
10992;BME280;5549;47.028;15.514;2024-01-27T04:22:45;97507.66;;;8.34;33.60
10992;BME280;5549;47.028;15.514;2024-01-27T04:25:15;97504.94;;;8.35;33.43
10992;BME280;5549;47.028;15.514;2024-01-27T04:27:48;97508.91;;;8.27;33.77
10992;BME280;5549;47.028;15.514;2024-01-27T04:30:15;97503.50;;;8.30;33.74
10992;BME280;5549;47.028;15.514;2024-01-27T04:32:43;97509.56;;;8.30;33.70
10992;BME280;5549;47.028;15.514;2024-01-27T04:35:11;97507.91;;;8.29;33.89
10992;BME280;5549;47.028;15.514;2024-01-27T04:37:44;97513.09;;;8.15;34.10
10992;BME280;5549;47.028;15.514;2024-01-27T04:40:14;97526.31;;;8.28;33.89
10992;BME280;5549;47.028;15.514;2024-01-27T04:42:42;97522.28;;;8.22;33.76
10992;BME280;5549;47.028;15.514;2024-01-27T04:45:15;97526.97;;;8.31;33.66
10992;BME280;5549;47.028;15.514;2024-01-27T04:47:46;97538.25;;;8.18;33.86
10992;BME280;5549;47.028;15.514;2024-01-27T04:50:15;97544.22;;;8.20;34.08
10992;BME280;5549;47.028;15.514;2024-01-27T04:52:44;97543.66;;;8.15;33.93
10992;BME280;5549;47.028;15.514;2024-01-27T04:55:15;97551.50;;;8.15;34.14
10992;BME280;5549;47.028;15.514;2024-01-27T04:57:42;97559.53;;;8.12;34.41
10992;BME280;5549;47.028;15.514;2024-01-27T05:00:11;97554.34;;;7.96;34.93
10992;BME280;5549;47.028;15.514;2024-01-27T05:02:40;97559.44;;;8.13;34.78
10992;BME280;5549;47.028;15.514;2024-01-27T05:05:08;97566.66;;;8.24;34.48
10992;BME280;5549;47.028;15.514;2024-01-27T05:07:35;97567.34;;;7.97;34.97
10992;BME280;5549;47.028;15.514;2024-01-27T05:10:06;97568.41;;;8.09;35.04
10992;BME280;5549;47.028;15.514;2024-01-27T05:12:40;97565.44;;;8.15;34.72
10992;BME280;5549;47.028;15.514;2024-01-27T05:15:09;97572.03;;;8.07;34.54
10992;BME280;5549;47.028;15.514;2024-01-27T05:17:38;97571.13;;;8.08;34.64
10992;BME280;5549;47.028;15.514;2024-01-27T05:20:09;97581.41;;;8.11;34.98
10992;BME280;5549;47.028;15.514;2024-01-27T05:22:37;97588.75;;;8.04;34.73
10992;BME280;5549;47.028;15.514;2024-01-27T05:25:08;97586.81;;;8.08;34.50
10992;BME280;5549;47.028;15.514;2024-01-27T05:27:38;97590.84;;;8.13;34.81
10992;BME280;5549;47.028;15.514;2024-01-27T05:30:08;97596.34;;;8.09;34.76
10992;BME280;5549;47.028;15.514;2024-01-27T05:32:37;97608.19;;;8.00;34.95
10992;BME280;5549;47.028;15.514;2024-01-27T05:35:06;97614.16;;;8.02;34.69
10992;BME280;5549;47.028;15.514;2024-01-27T05:37:34;97618.91;;;7.95;34.70
10992;BME280;5549;47.028;15.514;2024-01-27T05:40:06;97620.56;;;8.12;34.78
10992;BME280;5549;47.028;15.514;2024-01-27T05:42:35;97623.47;;;7.92;34.81
10992;BME280;5549;47.028;15.514;2024-01-27T05:45:03;97622.75;;;8.04;34.79
10992;BME280;5549;47.028;15.514;2024-01-27T05:47:33;97626.50;;;7.84;35.26
10992;BME280;5549;47.028;15.514;2024-01-27T05:50:03;97617.66;;;7.71;35.71
10992;BME280;5549;47.028;15.514;2024-01-27T05:52:30;97621.44;;;7.81;35.83
10992;BME280;5549;47.028;15.514;2024-01-27T05:54:58;97630.75;;;7.55;35.43
10992;BME280;5549;47.028;15.514;2024-01-27T05:57:26;97628.38;;;7.82;35.53
10992;BME280;5549;47.028;15.514;2024-01-27T05:59:57;97636.50;;;8.08;34.69
10992;BME280;5549;47.028;15.514;2024-01-27T06:02:27;97640.50;;;7.99;35.40
10992;BME280;5549;47.028;15.514;2024-01-27T06:04:54;97639.84;;;7.80;34.96
10992;BME280;5549;47.028;15.514;2024-01-27T06:07:22;97637.13;;;7.81;35.54
10992;BME280;5549;47.028;15.514;2024-01-27T06:09:51;97643.63;;;7.90;35.19
10992;BME280;5549;47.028;15.514;2024-01-27T06:12:19;97651.41;;;7.76;35.68
10992;BME280;5549;47.028;15.514;2024-01-27T06:14:49;97643.81;;;7.71;35.28
10992;BME280;5549;47.028;15.514;2024-01-27T06:17:18;97655.09;;;7.87;35.12
10992;BME280;5549;47.028;15.514;2024-01-27T06:19:46;97656.19;;;7.99;35.11
10992;BME280;5549;47.028;15.514;2024-01-27T06:22:15;97653.25;;;7.89;35.03
10992;BME280;5549;47.028;15.514;2024-01-27T06:24:43;97664.47;;;7.91;35.02
10992;BME280;5549;47.028;15.514;2024-01-27T06:27:13;97650.38;;;7.78;35.09
10992;BME280;5549;47.028;15.514;2024-01-27T06:29:43;97656.88;;;7.87;35.00
10992;BME280;5549;47.028;15.514;2024-01-27T06:32:10;97666.66;;;7.67;35.65
10992;BME280;5549;47.028;15.514;2024-01-27T06:34:42;97663.47;;;7.78;35.00
10992;BME280;5549;47.028;15.514;2024-01-27T06:37:09;97669.94;;;7.71;35.12
10992;BME280;5549;47.028;15.514;2024-01-27T06:39:37;97668.19;;;7.71;34.83
10992;BME280;5549;47.028;15.514;2024-01-27T06:42:06;97664.72;;;8.02;34.63
10992;BME280;5549;47.028;15.514;2024-01-27T06:44:37;97674.13;;;8.21;34.13
10992;BME280;5549;47.028;15.514;2024-01-27T06:47:05;97672.94;;;8.42;33.68
10992;BME280;5549;47.028;15.514;2024-01-27T06:49:32;97666.31;;;8.51;33.38
10992;BME280;5549;47.028;15.514;2024-01-27T06:52:02;97675.16;;;8.94;33.01
10992;BME280;5549;47.028;15.514;2024-01-27T06:54:29;97676.47;;;9.01;32.62
10992;BME280;5549;47.028;15.514;2024-01-27T06:56:59;97686.78;;;9.18;32.61
10992;BME280;5549;47.028;15.514;2024-01-27T06:59:29;97686.50;;;9.37;34.71
10992;BME280;5549;47.028;15.514;2024-01-27T07:01:57;97685.53;;;10.08;37.27
10992;BME280;5549;47.028;15.514;2024-01-27T07:04:27;97679.94;;;10.41;32.98
10992;BME280;5549;47.028;15.514;2024-01-27T07:06:54;97688.38;;;11.11;34.98
10992;BME280;5549;47.028;15.514;2024-01-27T07:09:26;97680.97;;;11.54;35.57
10992;BME280;5549;47.028;15.514;2024-01-27T07:11:53;97676.28;;;11.96;33.27
10992;BME280;5549;47.028;15.514;2024-01-27T07:14:21;97682.00;;;12.13;30.84
10992;BME280;5549;47.028;15.514;2024-01-27T07:16:51;97678.34;;;12.16;31.62
10992;BME280;5549;47.028;15.514;2024-01-27T07:19:21;97682.63;;;12.65;31.72
10992;BME280;5549;47.028;15.514;2024-01-27T07:21:48;97686.59;;;13.05;32.79
10992;BME280;5549;47.028;15.514;2024-01-27T07:24:18;97679.47;;;13.52;33.12
10992;BME280;5549;47.028;15.514;2024-01-27T07:26:47;97687.63;;;14.05;33.91
10992;BME280;5549;47.028;15.514;2024-01-27T07:29:17;97688.16;;;14.31;31.89
10992;BME280;5549;47.028;15.514;2024-01-27T07:31:49;97693.50;;;14.63;31.75
10992;BME280;5549;47.028;15.514;2024-01-27T07:34:17;97692.63;;;14.94;31.28
10992;BME280;5549;47.028;15.514;2024-01-27T07:36:44;97693.78;;;15.22;30.96
10992;BME280;5549;47.028;15.514;2024-01-27T07:39:14;97694.03;;;15.40;29.59
10992;BME280;5549;47.028;15.514;2024-01-27T07:41:41;97698.25;;;15.52;28.36
10992;BME280;5549;47.028;15.514;2024-01-27T07:44:13;97704.50;;;15.62;29.22
10992;BME280;5549;47.028;15.514;2024-01-27T07:46:41;97712.13;;;15.86;29.46
10992;BME280;5549;47.028;15.514;2024-01-27T07:49:11;97713.97;;;15.95;27.96
10992;BME280;5549;47.028;15.514;2024-01-27T07:51:42;97719.38;;;15.84;26.36
10992;BME280;5549;47.028;15.514;2024-01-27T07:54:11;97725.78;;;15.82;26.50
10992;BME280;5549;47.028;15.514;2024-01-27T07:56:39;97731.25;;;15.90;25.83
10992;BME280;5549;47.028;15.514;2024-01-27T07:59:11;97736.28;;;15.62;25.18
10992;BME280;5549;47.028;15.514;2024-01-27T08:01:42;97732.94;;;15.91;27.30
10992;BME280;5549;47.028;15.514;2024-01-27T08:04:09;97733.41;;;16.06;26.93
10992;BME280;5549;47.028;15.514;2024-01-27T08:06:47;97720.06;;;16.26;25.48
10992;BME280;5549;47.028;15.514;2024-01-27T08:09:18;97727.88;;;16.28;24.51
10992;BME280;5549;47.028;15.514;2024-01-27T08:11:48;97728.19;;;16.34;24.83
10992;BME280;5549;47.028;15.514;2024-01-27T08:14:22;97732.78;;;16.42;24.20
10992;BME280;5549;47.028;15.514;2024-01-27T08:16:52;97732.53;;;16.45;23.60
10992;BME280;5549;47.028;15.514;2024-01-27T08:19:20;97736.00;;;16.36;23.40
10992;BME280;5549;47.028;15.514;2024-01-27T08:21:48;97738.38;;;16.49;23.94
10992;BME280;5549;47.028;15.514;2024-01-27T08:24:16;97746.22;;;16.60;24.00
10992;BME280;5549;47.028;15.514;2024-01-27T08:26:45;97749.72;;;16.60;22.74
10992;BME280;5549;47.028;15.514;2024-01-27T08:29:14;97752.94;;;16.64;22.44
10992;BME280;5549;47.028;15.514;2024-01-27T08:31:45;97755.28;;;16.57;22.09
10992;BME280;5549;47.028;15.514;2024-01-27T08:34:15;97770.84;;;16.22;22.10
10992;BME280;5549;47.028;15.514;2024-01-27T08:36:43;97776.56;;;15.87;22.63
10992;BME280;5549;47.028;15.514;2024-01-27T08:39:13;97780.63;;;14.96;23.03
10992;BME280;5549;47.028;15.514;2024-01-27T08:41:43;97784.47;;;14.92;24.65
10992;BME280;5549;47.028;15.514;2024-01-27T08:44:13;97781.28;;;14.77;23.36
10992;BME280;5549;47.028;15.514;2024-01-27T08:46:41;97786.59;;;15.09;23.64
10992;BME280;5549;47.028;15.514;2024-01-27T08:49:12;97780.81;;;15.57;24.37
10992;BME280;5549;47.028;15.514;2024-01-27T08:51:40;97778.31;;;15.77;23.39
10992;BME280;5549;47.028;15.514;2024-01-27T08:54:10;97780.25;;;16.05;23.39
10992;BME280;5549;47.028;15.514;2024-01-27T08:56:40;97785.16;;;15.79;22.42
10992;BME280;5549;47.028;15.514;2024-01-27T08:59:10;97791.66;;;15.96;23.43
10992;BME280;5549;47.028;15.514;2024-01-27T09:01:38;97792.34;;;16.28;23.53
10992;BME280;5549;47.028;15.514;2024-01-27T09:04:07;97780.97;;;16.57;23.57
10992;BME280;5549;47.028;15.514;2024-01-27T09:06:38;97779.06;;;16.68;21.72
10992;BME280;5549;47.028;15.514;2024-01-27T09:09:08;97787.38;;;16.54;20.55
10992;BME280;5549;47.028;15.514;2024-01-27T09:11:36;97792.50;;;16.86;22.34
10992;BME280;5549;47.028;15.514;2024-01-27T09:14:06;97791.38;;;16.79;21.65
10992;BME280;5549;47.028;15.514;2024-01-27T09:16:33;97794.16;;;16.78;21.83
10992;BME280;5549;47.028;15.514;2024-01-27T09:19:01;97803.53;;;16.91;21.13
10992;BME280;5549;47.028;15.514;2024-01-27T09:21:31;97807.88;;;16.92;21.87
10992;BME280;5549;47.028;15.514;2024-01-27T09:24:03;97806.91;;;17.03;21.83
10992;BME280;5549;47.028;15.514;2024-01-27T09:26:31;97814.44;;;17.17;22.08
10992;BME280;5549;47.028;15.514;2024-01-27T09:28:58;97810.38;;;16.94;21.58
10992;BME280;5549;47.028;15.514;2024-01-27T09:31:26;97814.59;;;17.16;22.84
10992;BME280;5549;47.028;15.514;2024-01-27T09:33:54;97806.91;;;17.51;22.86
10992;BME280;5549;47.028;15.514;2024-01-27T09:36:25;97817.66;;;17.79;21.53
10992;BME280;5549;47.028;15.514;2024-01-27T09:38:55;97816.53;;;17.81;20.57
10992;BME280;5549;47.028;15.514;2024-01-27T09:41:24;97812.50;;;17.68;21.34
10992;BME280;5549;47.028;15.514;2024-01-27T09:44:00;97821.84;;;16.94;22.51
10992;BME280;5549;47.028;15.514;2024-01-27T09:46:30;97837.13;;;16.01;23.38
10992;BME280;5549;47.028;15.514;2024-01-27T09:48:59;97827.34;;;16.22;23.46
10992;BME280;5549;47.028;15.514;2024-01-27T09:51:32;97837.94;;;16.62;24.69
10992;BME280;5549;47.028;15.514;2024-01-27T09:54:00;97829.09;;;16.92;23.97
10992;BME280;5549;47.028;15.514;2024-01-27T09:56:29;97822.16;;;17.40;24.36
10992;BME280;5549;47.028;15.514;2024-01-27T09:59:00;97823.28;;;17.76;22.92
10992;BME280;5549;47.028;15.514;2024-01-27T10:01:32;97815.81;;;17.89;20.59
10992;BME280;5549;47.028;15.514;2024-01-27T10:04:00;97828.78;;;18.11;20.94
10992;BME280;5549;47.028;15.514;2024-01-27T10:06:28;97816.78;;;18.35;20.69
10992;BME280;5549;47.028;15.514;2024-01-27T10:08:58;97821.03;;;18.55;19.52
10992;BME280;5549;47.028;15.514;2024-01-27T10:11:28;97826.63;;;17.58;19.64
10992;BME280;5549;47.028;15.514;2024-01-27T10:13:59;97827.97;;;18.01;19.81
10992;BME280;5549;47.028;15.514;2024-01-27T10:16:27;97826.84;;;18.41;21.17
10992;BME280;5549;47.028;15.514;2024-01-27T10:19:01;97830.31;;;18.78;19.22
10992;BME280;5549;47.028;15.514;2024-01-27T10:21:29;97826.91;;;19.04;19.61
10992;BME280;5549;47.028;15.514;2024-01-27T10:23:57;97826.22;;;19.02;18.50
10992;BME280;5549;47.028;15.514;2024-01-27T10:26:25;97835.41;;;18.89;18.24
10992;BME280;5549;47.028;15.514;2024-01-27T10:28:55;97838.22;;;18.88;18.13
10992;BME280;5549;47.028;15.514;2024-01-27T10:31:27;97825.66;;;19.08;19.46
10992;BME280;5549;47.028;15.514;2024-01-27T10:33:57;97828.47;;;19.24;18.31
10992;BME280;5549;47.028;15.514;2024-01-27T10:36:39;97822.63;;;19.56;18.14
10992;BME280;5549;47.028;15.514;2024-01-27T10:39:18;97815.44;;;19.74;18.40
10992;BME280;5549;47.028;15.514;2024-01-27T10:41:48;97814.66;;;19.82;18.24
10992;BME280;5549;47.028;15.514;2024-01-27T10:44:20;97812.56;;;19.32;16.43
10992;BME280;5549;47.028;15.514;2024-01-27T10:46:49;97809.97;;;19.05;16.11
10992;BME280;5549;47.028;15.514;2024-01-27T10:49:20;97812.94;;;19.37;17.47
10992;BME280;5549;47.028;15.514;2024-01-27T10:51:56;97808.31;;;19.57;17.74
10992;BME280;5549;47.028;15.514;2024-01-27T10:54:28;97806.66;;;19.82;17.69
10992;BME280;5549;47.028;15.514;2024-01-27T10:56:57;97808.75;;;19.96;17.81
10992;BME280;5549;47.028;15.514;2024-01-27T10:59:28;97807.59;;;20.25;17.77
10992;BME280;5549;47.028;15.514;2024-01-27T11:01:58;97802.00;;;20.10;15.42
10992;BME280;5549;47.028;15.514;2024-01-27T11:04:28;97801.75;;;19.95;16.00
10992;BME280;5549;47.028;15.514;2024-01-27T11:06:59;97799.03;;;19.43;15.68
10992;BME280;5549;47.028;15.514;2024-01-27T11:09:34;97799.44;;;19.74;16.61
10992;BME280;5549;47.028;15.514;2024-01-27T11:12:06;97811.16;;;19.81;16.54
10992;BME280;5549;47.028;15.514;2024-01-27T11:14:38;97807.91;;;20.22;17.41
10992;BME280;5549;47.028;15.514;2024-01-27T11:17:08;97814.47;;;20.35;16.42
10992;BME280;5549;47.028;15.514;2024-01-27T11:19:35;97816.13;;;20.62;16.99
10992;BME280;5549;47.028;15.514;2024-01-27T11:22:05;97806.06;;;20.48;14.06
10992;BME280;5549;47.028;15.514;2024-01-27T11:24:35;97803.44;;;19.96;14.39
10992;BME280;5549;47.028;15.514;2024-01-27T11:27:04;97813.09;;;19.97;15.30
10992;BME280;5549;47.028;15.514;2024-01-27T11:29:35;97812.53;;;19.85;15.08
10992;BME280;5549;47.028;15.514;2024-01-27T11:32:17;97808.84;;;19.86;15.11
10992;BME280;5549;47.028;15.514;2024-01-27T11:34:48;97814.84;;;19.27;15.09
10992;BME280;5549;47.028;15.514;2024-01-27T11:37:18;97824.06;;;19.15;16.44
10992;BME280;5549;47.028;15.514;2024-01-27T11:39:52;97824.97;;;19.41;17.58
10992;BME280;5549;47.028;15.514;2024-01-27T11:42:32;97820.88;;;19.65;15.69
10992;BME280;5549;47.028;15.514;2024-01-27T11:45:00;97828.50;;;19.60;15.70
10992;BME280;5549;47.028;15.514;2024-01-27T11:47:30;97821.53;;;19.49;16.26
10992;BME280;5549;47.028;15.514;2024-01-27T11:49:57;97824.34;;;19.83;16.97
10992;BME280;5549;47.028;15.514;2024-01-27T11:52:25;97816.84;;;20.12;16.87
10992;BME280;5549;47.028;15.514;2024-01-27T11:54:55;97814.22;;;20.21;15.57
10992;BME280;5549;47.028;15.514;2024-01-27T11:57:26;97815.59;;;20.25;15.78
10992;BME280;5549;47.028;15.514;2024-01-27T11:59:56;97817.63;;;19.53;16.16
10992;BME280;5549;47.028;15.514;2024-01-27T12:02:24;97809.75;;;18.71;15.30
10992;BME280;5549;47.028;15.514;2024-01-27T12:04:53;97812.00;;;18.01;15.44
10992;BME280;5549;47.028;15.514;2024-01-27T12:07:21;97814.03;;;18.54;16.34
10992;BME280;5549;47.028;15.514;2024-01-27T12:09:49;97806.66;;;18.75;16.25
10992;BME280;5549;47.028;15.514;2024-01-27T12:12:17;97806.78;;;19.19;15.94
10992;BME280;5549;47.028;15.514;2024-01-27T12:14:49;97817.22;;;19.30;16.05
10992;BME280;5549;47.028;15.514;2024-01-27T12:17:22;97813.16;;;19.44;15.78
10992;BME280;5549;47.028;15.514;2024-01-27T12:19:52;97807.28;;;19.76;15.96
10992;BME280;5549;47.028;15.514;2024-01-27T12:22:23;97819.34;;;19.44;15.94
10992;BME280;5549;47.028;15.514;2024-01-27T12:24:52;97817.97;;;19.40;15.75
10992;BME280;5549;47.028;15.514;2024-01-27T12:27:21;97807.03;;;19.08;15.02
10992;BME280;5549;47.028;15.514;2024-01-27T12:29:49;97817.84;;;18.79;15.64
10992;BME280;5549;47.028;15.514;2024-01-27T12:32:18;97821.91;;;19.01;16.38
10992;BME280;5549;47.028;15.514;2024-01-27T12:34:46;97832.78;;;18.62;15.15
10992;BME280;5549;47.028;15.514;2024-01-27T12:37:15;97824.13;;;17.38;15.70
10992;BME280;5549;47.028;15.514;2024-01-27T12:39:45;97829.41;;;17.09;16.58
10992;BME280;5549;47.028;15.514;2024-01-27T12:42:13;97832.75;;;17.20;16.34
10992;BME280;5549;47.028;15.514;2024-01-27T12:44:43;97823.50;;;16.95;15.83
10992;BME280;5549;47.028;15.514;2024-01-27T12:47:11;97843.97;;;16.34;16.30
10992;BME280;5549;47.028;15.514;2024-01-27T12:49:40;97845.97;;;16.42;16.75
10992;BME280;5549;47.028;15.514;2024-01-27T12:52:08;97840.75;;;16.00;16.96
10992;BME280;5549;47.028;15.514;2024-01-27T12:54:37;97842.25;;;15.72;17.74
10992;BME280;5549;47.028;15.514;2024-01-27T12:57:05;97840.75;;;15.58;17.56
10992;BME280;5549;47.028;15.514;2024-01-27T12:59:33;97854.72;;;16.02;17.67
10992;BME280;5549;47.028;15.514;2024-01-27T13:02:01;97850.31;;;15.91;17.30
10992;BME280;5549;47.028;15.514;2024-01-27T13:04:30;97851.66;;;15.01;17.19
10992;BME280;5549;47.028;15.514;2024-01-27T13:06:58;97843.72;;;15.01;17.28
10992;BME280;5549;47.028;15.514;2024-01-27T13:09:26;97856.94;;;14.58;17.34
10992;BME280;5549;47.028;15.514;2024-01-27T13:11:57;97863.16;;;14.23;17.65
10992;BME280;5549;47.028;15.514;2024-01-27T13:14:24;97867.63;;;13.76;17.84
10992;BME280;5549;47.028;15.514;2024-01-27T13:16:52;97866.22;;;13.84;17.82